找回密碼
 注冊

掃一掃,訪問微社區

推薦主題

本版置頂 隱藏置頂帖 那些年,風靡全球的SI,PI,EMC BOOKS(2009--2015)外文版 91人參與 attach_img  ...23456 櫻桃海彌 2016-2-2 17:33 88 9938 zz9900 2019-6-6 14:32
本版置頂 隱藏置頂帖 Designcon 2016 paper 下載站 78人參與 attachment  ...23456 shark4685 2016-1-27 11:33 89 16715 yama 2019-6-6 15:17
      
[ADS仿真] 請教ADS的瞬態仿真步長 1人參與 attach_img New hhh虎次郎 2019-6-7 16:56 1 47 wu6886 2019-6-8 17:30
[Cadence Sigrity] DDR3仿真結果與實際測試相差較大 4人參與 New clovep 2019-6-6 10:10 6 66 jackli198323 2019-6-6 18:27
[HyperLynx] Mentor Expediton中引線鍵合(wire bonding)導入到Hyperlynx后,鍵合線還在么? 3人參與 New j走不停j 2019-6-3 10:21 4 70 Coziness_yang 2019-6-5 09:10
[仿真討論] 關于IC封裝散熱仿真 9人參與 gloriousjh 2019-5-30 19:34 12 118 jackli198323 2019-6-6 11:30
[仿真討論] DDR3信號完整性仿真流程 11人參與 chm1020 2019-5-30 09:35 13 224 jackli198323 2019-6-6 18:28
[Cadence Sigrity] 關于POWER SI提取PCIES參數 5人參與 attach_img kevin890505 2019-5-29 19:05 6 133 tianjie3 2019-6-8 08:46
[資料下載] 仿真模型下載 6人參與 新人帖 wux 2019-5-29 15:28 8 112 jackli198323 2019-6-5 16:50
[Cadence Sigrity] speed2000 Generator仿真DDR3控制器加載IBIS模型提示無電源端口 8人參與 attach_img wsn2010 2019-5-29 00:40 13 184 wu6886 2019-6-2 18:45
[ADS仿真] 求ADS信號完整性教程 10人參與 attach_img hhh虎次郎 2019-5-28 19:27 14 162 jackli198323 2019-6-5 16:50
[仿真討論] 請教,為什么射頻電流的回流路徑會選擇最低阻抗路徑 6人參與 nathon 2019-5-28 15:59 9 171 nathon 2019-6-5 10:28
[ADS仿真] ADS 2017安裝包和破解教程 5人參與 陜西-小張 2019-5-28 15:41 6 106 急先鋒 2019-5-29 09:46
[ADS仿真] 關于ADS2019安裝問題 6人參與 新人帖 panxiping1 2019-5-28 14:16 9 169 小劉同學 2019-6-5 15:19
[資料下載] CAF陽極離子遷移資料大全 2人參與 attachment shi877 2019-5-28 10:55 3 53 jackli198323 2019-5-29 10:48
[HyperLynx] 分享自己搜集的資料 7人參與 新人帖 attachment shi877 2019-5-28 10:54 7 117 xingnuolgsx 2019-6-5 15:23
[HyperLynx] 需不需要你說了算 1人參與 - [閱讀權限 40]attachment 往昔如夢 2019-5-27 22:18 1 15 bingshuihuo 2019-5-28 08:50
[Cadence Sigrity] Cadence Sigrity 2018補丁 Hotfix_SIG18.00.003_wint_1of1 35人參與 agree  ...23 ldz0933 2019-5-27 17:03 38 325 thlee 2019-6-8 11:41
[Cadence Sigrity] DDR3仿真中時鐘抖動該如何仿真———— 8人參與 clovep 2019-5-27 13:43 8 125 昱行 2019-6-6 16:07
[Ansys仿真] HFSS中文教程-非常詳細 10人參與 attachment jackli198323 2019-5-27 11:22 13 190 tianjie3 2019-6-8 08:47
[Cadence Sigrity] PCB板上信號的返回回路 6人參與 dl2017 2019-5-26 20:07 10 184 江潮 2019-5-29 09:20
[ADS仿真] ADS 2019 update 1 via 使用不了怎么解決 6人參與 attach_img 往昔如夢 2019-5-26 15:53 8 127 Choulia 2019-6-1 18:31
[ADS仿真] 請教ADS的TDR結果界面matrix selector是配置什么的? 2人參與 attach_img Choulia 2019-5-25 17:41 2 71 jackli198323 2019-5-27 10:54
[ADS仿真] 請教ADC進行差分過孔仿真時如何設置反焊盤的范圍? 3人參與 新人帖 attach_img Choulia 2019-5-25 14:17 4 107 Choulia 2019-6-4 09:58
[Cadence Sigrity] Power SI and Power DC 3人參與 nicro 2019-5-24 11:07 3 141 Lee_G10D0 2019-6-3 13:48
下一頁 »
還可輸入 80 個字符
您需要登錄后才可以發帖 登錄 | 注冊

本版積分規則

EDA365公眾號

關于我們|手機版|EDA365電子論壇網 ( 粵ICP備18020198號 )

GMT+8, 2019-6-8 20:47 , Processed in 0.078125 second(s), 13 queries , Gzip On.

深圳市電巢科技有限公司

地址:深圳市南山區科技生態園1區2棟A座805 電話:19925233282

返回頂部 返回版塊
大乐透玩法